createdAt,value
2018-04-24T00:00:11.136Z,14.90
2018-04-24T00:02:39.178Z,14.90
2018-04-24T00:05:07.257Z,14.80
2018-04-24T00:07:35.322Z,14.80
2018-04-24T00:10:03.492Z,14.70
2018-04-24T00:12:31.563Z,14.70
2018-04-24T00:14:59.737Z,14.70
2018-04-24T00:17:27.780Z,14.70
2018-04-24T00:19:55.842Z,14.70
2018-04-24T00:22:23.924Z,14.60
2018-04-24T00:24:51.974Z,14.60
2018-04-24T00:27:20.788Z,14.50
2018-04-24T00:29:49.615Z,14.50
2018-04-24T00:32:19.230Z,14.40
2018-04-24T00:34:47.378Z,14.30
2018-04-24T00:37:15.429Z,14.20
2018-04-24T00:39:43.573Z,14.20
2018-04-24T00:42:11.676Z,14.30
2018-04-24T00:44:40.579Z,14.30
2018-04-24T00:47:08.768Z,14.30
2018-04-24T00:49:36.802Z,14.30
2018-04-24T00:52:04.910Z,14.30
2018-04-24T00:54:33.254Z,14.30
2018-04-24T00:57:01.338Z,14.30
2018-04-24T00:59:29.414Z,14.30
2018-04-24T01:01:57.462Z,14.30
2018-04-24T01:04:26.297Z,14.30
2018-04-24T01:06:54.340Z,14.20
2018-04-24T01:09:22.412Z,14.20
2018-04-24T01:11:50.486Z,14.20
2018-04-24T01:14:18.525Z,14.10
2018-04-24T01:16:47.143Z,14.00
2018-04-24T01:19:15.209Z,14.00
2018-04-24T01:21:43.280Z,13.90
2018-04-24T01:24:11.332Z,13.90
2018-04-24T01:26:39.413Z,13.80
2018-04-24T01:29:07.465Z,13.70
2018-04-24T01:31:35.563Z,13.70
2018-04-24T01:34:03.611Z,13.80
2018-04-24T01:36:31.743Z,13.80
2018-04-24T01:38:59.892Z,13.90
2018-04-24T01:41:27.949Z,13.90
2018-04-24T01:43:55.986Z,13.90
2018-04-24T01:46:24.845Z,13.80
2018-04-24T01:48:52.983Z,13.70
2018-04-24T01:51:21.046Z,13.70
2018-04-24T01:53:49.095Z,13.50
2018-04-24T01:56:17.901Z,13.40
2018-04-24T01:58:45.950Z,13.40
2018-04-24T02:01:14.047Z,13.30
2018-04-24T02:03:42.114Z,13.30
2018-04-24T02:06:10.178Z,13.30
2018-04-24T02:08:38.261Z,13.30
2018-04-24T02:11:06.370Z,13.20
2018-04-24T02:13:34.425Z,13.20
2018-04-24T02:16:02.478Z,13.20
2018-04-24T02:18:30.578Z,13.20
2018-04-24T02:20:58.766Z,13.10
2018-04-24T02:23:26.826Z,13.10
2018-04-24T02:25:54.965Z,13.10
2018-04-24T02:28:23.039Z,13.10
2018-04-24T02:30:51.151Z,13.00
2018-04-24T02:33:19.314Z,13.00
2018-04-24T02:35:47.381Z,13.00
2018-04-24T02:38:15.428Z,13.10
2018-04-24T02:40:43.547Z,13.10
2018-04-24T02:43:11.627Z,13.10
2018-04-24T02:45:39.771Z,13.10
2018-04-24T02:48:07.938Z,13.20
2018-04-24T02:50:36.140Z,13.10
2018-04-24T02:53:04.267Z,13.20
2018-04-24T02:55:32.313Z,13.10
2018-04-24T02:58:00.402Z,13.10
2018-04-24T03:00:28.450Z,13.10
2018-04-24T03:02:56.525Z,13.00
2018-04-24T03:05:25.361Z,13.00
2018-04-24T03:07:53.410Z,13.00
2018-04-24T03:10:21.497Z,12.90
2018-04-24T03:12:49.542Z,12.80
2018-04-24T03:15:17.694Z,12.80
2018-04-24T03:17:46.477Z,12.80
2018-04-24T03:20:15.344Z,12.80
2018-04-24T03:22:43.482Z,12.80
2018-04-24T03:25:11.562Z,12.80
2018-04-24T03:27:40.237Z,12.80
2018-04-24T03:30:08.329Z,12.80
2018-04-24T03:32:36.409Z,12.80
2018-04-24T03:35:04.583Z,12.80
2018-04-24T03:37:32.610Z,12.80
2018-04-24T03:40:00.660Z,12.70
2018-04-24T03:42:29.512Z,12.70
2018-04-24T03:44:57.562Z,12.70
2018-04-24T03:47:25.645Z,12.70
2018-04-24T03:49:53.807Z,12.70
2018-04-24T03:52:21.860Z,12.70
2018-04-24T03:54:49.946Z,12.70
2018-04-24T03:57:18.126Z,12.70
2018-04-24T03:59:46.103Z,12.80
2018-04-24T04:02:14.190Z,12.80
2018-04-24T04:04:42.358Z,12.80
2018-04-24T04:07:10.418Z,12.80
2018-04-24T04:09:38.625Z,12.80
2018-04-24T04:12:06.787Z,12.80
2018-04-24T04:14:34.833Z,12.80
2018-04-24T04:17:14.708Z,12.80
2018-04-24T04:19:54.773Z,12.80
2018-04-24T04:22:34.662Z,12.80
2018-04-24T04:25:02.776Z,12.80
2018-04-24T04:27:31.666Z,12.80
2018-04-24T04:29:59.702Z,12.80
2018-04-24T04:32:27.822Z,12.80
2018-04-24T04:34:55.900Z,12.80
2018-04-24T04:37:24.009Z,12.80
2018-04-24T04:39:53.569Z,12.90
2018-04-24T04:42:21.615Z,12.90
2018-04-24T04:44:50.069Z,12.90
2018-04-24T04:47:18.175Z,12.90
2018-04-24T04:49:46.638Z,13.00
2018-04-24T04:52:14.738Z,13.00
2018-04-24T04:54:42.820Z,13.00
2018-04-24T04:57:11.286Z,13.00
2018-04-24T04:59:39.353Z,13.10
2018-04-24T05:02:07.398Z,13.10
2018-04-24T05:04:35.473Z,13.10
2018-04-24T05:07:03.543Z,13.20
2018-04-24T05:09:31.631Z,13.20
2018-04-24T05:11:59.723Z,13.30
2018-04-24T05:14:27.765Z,13.30
2018-04-24T05:16:55.842Z,13.50
2018-04-24T05:19:23.911Z,13.50
2018-04-24T05:21:52.085Z,13.60
2018-04-24T05:24:20.141Z,13.70
2018-04-24T05:26:48.190Z,13.70
2018-04-24T05:29:16.266Z,13.80
2018-04-24T05:31:44.379Z,13.90
2018-04-24T05:34:12.418Z,14.00
2018-04-24T05:36:40.574Z,14.10
2018-04-24T05:39:08.635Z,14.40
2018-04-24T05:41:36.755Z,14.50
2018-04-24T05:44:04.812Z,14.40
2018-04-24T05:46:32.854Z,14.70
2018-04-24T05:49:00.962Z,14.70
2018-04-24T05:51:29.050Z,14.70
2018-04-24T05:53:57.101Z,14.60
2018-04-24T05:56:25.144Z,14.70
2018-04-24T05:58:53.967Z,14.60
2018-04-24T06:01:22.003Z,14.60
2018-04-24T06:03:50.844Z,14.60
2018-04-24T06:06:18.891Z,14.60
2018-04-24T06:08:47.036Z,14.60
2018-04-24T06:11:15.083Z,14.70
2018-04-24T06:13:43.213Z,14.80
2018-04-24T06:16:11.284Z,15.00
2018-04-24T06:18:39.348Z,15.00
2018-04-24T06:21:07.424Z,15.00
2018-04-24T06:23:35.510Z,15.00
2018-04-24T06:26:03.571Z,15.00
2018-04-24T06:28:31.846Z,15.00
2018-04-24T06:30:59.808Z,15.10
2018-04-24T06:33:27.921Z,15.10
2018-04-24T06:35:56.127Z,15.20
2018-04-24T06:38:24.480Z,15.20
2018-04-24T06:40:52.498Z,15.20
2018-04-24T06:43:21.326Z,15.20
2018-04-24T06:45:49.440Z,15.30
2018-04-24T06:48:17.472Z,15.30
2018-04-24T06:50:45.550Z,15.30
2018-04-24T06:53:13.582Z,15.30
2018-04-24T06:55:41.648Z,15.10
2018-04-24T06:58:09.686Z,15.20
2018-04-24T07:00:38.534Z,15.40
2018-04-24T07:03:07.681Z,15.60
2018-04-24T07:05:35.703Z,15.60
2018-04-24T07:08:04.837Z,15.80
2018-04-24T07:10:33.686Z,16.00
2018-04-24T07:13:01.728Z,15.90
2018-04-24T07:15:29.774Z,15.80
2018-04-24T07:17:57.838Z,15.80
2018-04-24T07:20:26.662Z,15.60
2018-04-24T07:22:54.714Z,15.50
2018-04-24T07:25:22.791Z,15.50
2018-04-24T07:27:50.834Z,15.50
2018-04-24T07:30:19.743Z,15.60
2018-04-24T07:32:48.575Z,15.50
2018-04-24T07:35:16.602Z,15.50
2018-04-24T07:37:44.673Z,15.50
2018-04-24T07:40:12.744Z,15.50
2018-04-24T07:42:40.899Z,15.60
2018-04-24T07:45:08.879Z,15.60
2018-04-24T07:47:38.877Z,15.70
2018-04-24T07:50:06.962Z,15.70
2018-04-24T07:52:35.018Z,15.80
2018-04-24T07:55:03.106Z,16.10
2018-04-24T07:57:31.161Z,16.40
2018-04-24T07:59:59.369Z,16.70
2018-04-24T08:02:27.416Z,17.00
2018-04-24T08:04:55.480Z,17.10
2018-04-24T08:07:23.543Z,17.00
2018-04-24T08:09:51.650Z,16.90
2018-04-24T08:12:19.708Z,16.80
2018-04-24T08:14:48.499Z,16.30
2018-04-24T08:17:17.310Z,16.00
2018-04-24T08:19:45.366Z,16.00
2018-04-24T08:22:13.425Z,15.90
2018-04-24T08:24:41.494Z,15.70
2018-04-24T08:27:09.554Z,15.50
2018-04-24T08:29:37.613Z,15.40
2018-04-24T08:32:05.658Z,15.40
2018-04-24T08:34:33.739Z,15.40
2018-04-24T08:37:01.787Z,15.40
2018-04-24T08:39:29.841Z,15.50
2018-04-24T08:41:57.894Z,15.50
2018-04-24T08:44:26.730Z,15.50
2018-04-24T08:46:54.786Z,15.50
2018-04-24T08:49:22.858Z,15.50
2018-04-24T08:51:50.928Z,15.60
2018-04-24T08:54:18.965Z,15.50
2018-04-24T08:56:47.805Z,15.40
2018-04-24T08:59:15.858Z,15.30
2018-04-24T09:01:43.946Z,15.10
2018-04-24T09:04:11.994Z,15.10
2018-04-24T09:06:40.097Z,15.00
2018-04-24T09:09:08.239Z,15.00
2018-04-24T09:11:37.039Z,14.90
2018-04-24T09:14:05.190Z,14.90
2018-04-24T09:16:33.219Z,14.80
2018-04-24T09:19:01.348Z,14.80
2018-04-24T09:21:30.185Z,14.90
2018-04-24T09:23:58.254Z,14.80
2018-04-24T09:26:26.323Z,14.80
2018-04-24T09:28:54.390Z,14.90
2018-04-24T09:34:18.246Z,15.00
2018-04-24T09:36:46.401Z,15.00
2018-04-24T09:39:15.452Z,15.10
2018-04-24T09:41:43.531Z,15.10
2018-04-24T09:44:11.598Z,15.10
2018-04-24T09:46:40.402Z,15.30
2018-04-24T09:49:08.474Z,15.30
2018-04-24T09:51:37.348Z,15.20
2018-04-24T09:54:05.408Z,15.20
2018-04-24T09:56:33.479Z,15.10
2018-04-24T09:59:01.530Z,15.00
2018-04-24T10:01:29.606Z,15.00
2018-04-24T10:03:57.662Z,15.10
2018-04-24T10:06:25.721Z,15.10
2018-04-24T10:08:53.799Z,15.00
2018-04-24T10:11:21.862Z,15.00
2018-04-24T10:13:49.993Z,15.00
2018-04-24T10:16:18.054Z,14.90
2018-04-24T10:18:46.095Z,14.80
2018-04-24T10:21:14.148Z,14.70
2018-04-24T10:23:42.268Z,14.50
2018-04-24T10:26:10.327Z,14.50
2018-04-24T10:28:38.395Z,14.50
2018-04-24T10:31:06.462Z,14.40
2018-04-24T10:33:34.559Z,14.50
2018-04-24T10:36:02.619Z,14.50
2018-04-24T10:38:30.689Z,14.60
2018-04-24T10:40:58.797Z,14.60
2018-04-24T10:43:26.886Z,15.00
2018-04-24T10:45:54.907Z,15.10
2018-04-24T10:48:23.726Z,15.60
2018-04-24T10:50:52.560Z,15.80
2018-04-24T10:53:20.640Z,16.00
2018-04-24T10:55:48.725Z,15.90
2018-04-24T10:58:17.657Z,15.90
2018-04-24T11:00:46.487Z,15.70
2018-04-24T11:03:14.558Z,15.70
2018-04-24T11:05:42.650Z,15.70
2018-04-24T11:08:10.719Z,15.80
2018-04-24T11:10:38.783Z,15.80
2018-04-24T11:13:06.841Z,16.30
2018-04-24T11:15:34.967Z,16.40
2018-04-24T11:18:02.974Z,16.50
2018-04-24T11:20:31.046Z,16.40
2018-04-24T11:22:59.117Z,16.30
2018-04-24T11:25:27.179Z,16.20
2018-04-24T11:27:55.230Z,16.00
2018-04-24T11:30:24.275Z,16.00
2018-04-24T11:32:52.218Z,16.10
2018-04-24T11:35:20.342Z,16.10
2018-04-24T11:37:48.391Z,16.20
2018-04-24T11:40:16.458Z,16.10
2018-04-24T11:42:45.303Z,16.20
2018-04-24T11:45:14.163Z,16.50
2018-04-24T11:47:42.151Z,16.40
2018-04-24T11:50:11.061Z,16.80
2018-04-24T11:52:39.134Z,16.80
2018-04-24T11:55:07.191Z,17.30
2018-04-24T11:57:36.093Z,17.50
2018-04-24T12:00:04.116Z,17.50
2018-04-24T12:02:32.230Z,17.70
2018-04-24T12:05:00.290Z,17.70
2018-04-24T12:07:29.094Z,17.50
2018-04-24T12:09:57.171Z,17.50
2018-04-24T12:12:25.976Z,17.40
2018-04-24T12:14:54.017Z,17.30
2018-04-24T12:17:22.854Z,17.60
2018-04-24T12:19:50.988Z,17.60
2018-04-24T12:22:19.013Z,17.80
2018-04-24T12:24:47.075Z,17.90
2018-04-24T12:27:15.126Z,17.80
2018-04-24T12:29:43.216Z,17.70
2018-04-24T12:32:11.299Z,17.40
2018-04-24T12:34:39.416Z,17.40
2018-04-24T12:37:07.457Z,17.20
2018-04-24T12:39:35.538Z,16.90
2018-04-24T12:42:03.668Z,16.80
2018-04-24T12:44:31.699Z,16.70
2018-04-24T12:47:00.550Z,17.00
2018-04-24T12:49:28.608Z,17.00
2018-04-24T12:51:56.694Z,17.20
2018-04-24T12:54:24.774Z,17.20
2018-04-24T12:56:52.847Z,17.10
2018-04-24T12:59:20.954Z,17.20
2018-04-24T13:01:49.083Z,16.90
2018-04-24T13:04:17.125Z,16.90
2018-04-24T13:06:45.263Z,17.00
2018-04-24T13:09:13.294Z,17.00
2018-04-24T13:11:41.370Z,17.20
2018-04-24T13:14:09.446Z,17.30
2018-04-24T13:16:37.654Z,17.50
2018-04-24T13:19:05.674Z,17.60
2018-04-24T13:21:33.753Z,17.90
2018-04-24T13:24:01.813Z,18.40
2018-04-24T13:26:29.882Z,18.60
2018-04-24T13:28:57.942Z,18.60
2018-04-24T13:31:26.011Z,19.10
2018-04-24T13:33:54.082Z,19.10
2018-04-24T13:36:22.150Z,18.90
2018-04-24T13:38:50.238Z,18.70
2018-04-24T13:41:18.329Z,18.50
2018-04-24T13:43:46.605Z,18.20
2018-04-24T13:46:14.639Z,18.10
2018-04-24T13:48:42.722Z,17.70
2018-04-24T13:51:10.810Z,17.60
2018-04-24T13:53:39.276Z,17.50
2018-04-24T13:56:07.389Z,17.40
2018-04-24T13:58:35.429Z,17.40
2018-04-24T14:01:03.487Z,17.40
2018-04-24T14:03:31.591Z,17.40
2018-04-24T14:05:59.670Z,17.30
2018-04-24T14:08:28.869Z,17.30
2018-04-24T14:10:57.837Z,17.30
2018-04-24T14:13:25.898Z,17.40
2018-04-24T14:15:53.981Z,17.50
2018-04-24T14:18:22.042Z,17.40
2018-04-24T14:20:50.503Z,17.40
2018-04-24T14:23:19.326Z,17.40
2018-04-24T14:25:47.381Z,17.40
2018-04-24T14:28:15.439Z,17.50
2018-04-24T14:30:43.555Z,17.60
2018-04-24T14:33:11.603Z,17.70
2018-04-24T14:35:39.678Z,17.70
2018-04-24T14:38:07.753Z,17.50
2018-04-24T14:40:35.798Z,17.40
2018-04-24T14:43:03.874Z,17.30
2018-04-24T14:45:31.942Z,17.10
2018-04-24T14:48:00.017Z,17.10
2018-04-24T14:50:28.085Z,17.10
2018-04-24T14:52:56.159Z,17.10
2018-04-24T14:55:24.214Z,17.10
2018-04-24T14:57:52.281Z,17.00
2018-04-24T15:00:20.343Z,16.90
2018-04-24T15:02:48.424Z,16.80
2018-04-24T15:05:16.503Z,16.80
2018-04-24T15:07:44.577Z,16.60
2018-04-24T15:10:12.653Z,16.60
2018-04-24T15:12:40.703Z,16.60
2018-04-24T15:15:08.808Z,16.60
2018-04-24T15:17:36.871Z,16.70
2018-04-24T15:20:04.963Z,16.60
2018-04-24T15:22:33.145Z,16.60
2018-04-24T15:25:01.235Z,16.60
2018-04-24T15:27:30.074Z,16.60
2018-04-24T15:29:58.148Z,16.50
2018-04-24T15:32:26.225Z,16.60
2018-04-24T15:34:54.306Z,16.50
2018-04-24T15:37:22.370Z,16.50
2018-04-24T15:39:50.428Z,16.50
2018-04-24T15:42:18.509Z,16.50
2018-04-24T15:44:46.553Z,16.60
2018-04-24T15:47:14.643Z,16.70
2018-04-24T15:49:42.712Z,16.90
2018-04-24T15:52:10.782Z,17.30
2018-04-24T15:54:38.818Z,17.30
2018-04-24T15:57:08.350Z,17.40
2018-04-24T15:59:36.408Z,17.30
2018-04-24T16:02:04.467Z,17.40
2018-04-24T16:04:33.277Z,17.40
2018-04-24T16:07:01.328Z,17.30
2018-04-24T16:09:30.139Z,17.40
2018-04-24T16:11:58.194Z,17.30
2018-04-24T16:14:26.280Z,17.30
2018-04-24T16:16:54.356Z,17.30
2018-04-24T16:19:22.411Z,17.30
2018-04-24T16:21:50.854Z,17.30
2018-04-24T16:24:19.334Z,17.30
2018-04-24T16:26:47.403Z,17.30
2018-04-24T16:29:17.049Z,17.30
2018-04-24T16:31:45.106Z,17.30
2018-04-24T16:34:14.030Z,17.30
2018-04-24T16:36:42.116Z,17.30
2018-04-24T16:39:10.158Z,17.30
2018-04-24T16:41:38.640Z,17.20
2018-04-24T16:44:06.718Z,17.10
2018-04-24T16:46:34.818Z,17.00
2018-04-24T16:49:02.956Z,16.90
2018-04-24T16:51:31.033Z,16.90
2018-04-24T16:53:59.869Z,16.80
2018-04-24T16:56:27.944Z,16.80
2018-04-24T16:58:56.007Z,16.80
2018-04-24T17:01:24.053Z,16.70
2018-04-24T17:03:52.109Z,16.60
2018-04-24T17:06:20.158Z,16.50
2018-04-24T17:08:48.984Z,16.50
2018-04-24T17:11:17.033Z,16.40
2018-04-24T17:13:45.900Z,16.50
2018-04-24T17:16:14.353Z,16.40
2018-04-24T17:18:42.876Z,16.40
2018-04-24T17:21:10.887Z,16.30
2018-04-24T17:23:38.963Z,16.30
2018-04-24T17:26:07.069Z,16.30
2018-04-24T17:28:35.901Z,16.10
2018-04-24T17:31:04.052Z,16.10
2018-04-24T17:33:32.080Z,16.10
2018-04-24T17:36:00.134Z,16.10
2018-04-24T17:38:28.268Z,16.10
2018-04-24T17:40:56.306Z,16.10
2018-04-24T17:43:25.232Z,16.00
2018-04-24T17:45:53.333Z,16.10
2018-04-24T17:48:21.365Z,16.10
2018-04-24T17:50:50.197Z,16.00
2018-04-24T17:53:19.513Z,16.00
2018-04-24T17:55:47.565Z,15.90
2018-04-24T17:58:16.657Z,16.00
2018-04-24T18:00:45.905Z,15.90
2018-04-24T18:03:14.393Z,15.90
2018-04-24T18:05:43.218Z,15.90
2018-04-24T18:08:11.294Z,15.90
2018-04-24T18:10:39.650Z,15.80
2018-04-24T18:13:08.462Z,15.80
2018-04-24T18:15:36.627Z,15.60
2018-04-24T18:18:05.447Z,15.70
2018-04-24T18:20:33.534Z,15.70
2018-04-24T18:23:01.613Z,15.60
2018-04-24T18:25:30.478Z,15.60
2018-04-24T18:27:58.590Z,15.60
2018-04-24T18:30:27.424Z,15.60
2018-04-24T18:32:55.502Z,15.60
2018-04-24T18:35:24.263Z,15.50
2018-04-24T18:37:53.193Z,15.50
2018-04-24T18:40:22.137Z,15.50
2018-04-24T18:42:50.177Z,15.50
2018-04-24T18:45:18.226Z,15.40
2018-04-24T18:47:46.340Z,15.40
2018-04-24T18:50:15.209Z,15.40
2018-04-24T18:52:43.279Z,15.40
2018-04-24T18:55:11.356Z,15.40
2018-04-24T18:57:39.523Z,15.40
2018-04-24T19:00:07.777Z,15.40
2018-04-24T19:02:35.854Z,15.40
2018-04-24T19:05:04.604Z,15.40
2018-04-24T19:07:32.730Z,15.30
2018-04-24T19:10:00.830Z,15.30
2018-04-24T19:12:29.015Z,15.30
2018-04-24T19:14:57.048Z,15.30
2018-04-24T19:17:25.100Z,15.20
2018-04-24T19:19:53.275Z,15.20
2018-04-24T19:22:22.030Z,15.20
2018-04-24T19:24:55.851Z,15.10
2018-04-24T19:27:23.906Z,15.10
2018-04-24T19:29:51.978Z,15.10
2018-04-24T19:32:25.724Z,15.10
2018-04-24T19:34:53.783Z,15.10
2018-04-24T19:37:21.865Z,15.10
2018-04-24T19:39:55.601Z,15.10
2018-04-24T19:42:23.677Z,15.10
2018-04-24T19:44:52.590Z,15.00
2018-04-24T19:47:20.688Z,15.00
2018-04-24T19:49:54.397Z,15.00
2018-04-24T19:52:22.458Z,15.00
2018-04-24T19:54:56.383Z,15.00
2018-04-24T19:57:24.444Z,15.00
2018-04-24T19:59:52.525Z,14.90
2018-04-24T20:02:20.656Z,15.00
2018-04-24T20:04:48.802Z,14.90
2018-04-24T20:07:16.871Z,14.90
2018-04-24T20:09:44.992Z,14.90
2018-04-24T20:12:13.061Z,14.90
2018-04-24T20:14:41.142Z,14.90
2018-04-24T20:17:09.316Z,14.90
2018-04-24T20:19:37.391Z,14.90
2018-04-24T20:22:05.418Z,14.90
2018-04-24T20:24:34.281Z,14.90
2018-04-24T20:27:02.329Z,14.90
2018-04-24T20:29:30.403Z,14.90
2018-04-24T20:34:32.943Z,14.90
2018-04-24T20:37:01.823Z,14.90
2018-04-24T20:39:29.893Z,14.90
2018-04-24T20:41:57.930Z,14.90
2018-04-24T20:44:25.990Z,14.90
2018-04-24T20:46:54.054Z,14.90
2018-04-24T20:49:22.115Z,14.90
2018-04-24T20:51:50.199Z,14.80
2018-04-24T20:54:18.300Z,14.80
2018-04-24T20:56:46.326Z,14.80
2018-04-24T20:59:14.411Z,14.80
2018-04-24T21:01:42.491Z,14.80
2018-04-24T21:04:10.538Z,14.90
2018-04-24T21:06:38.615Z,14.90
2018-04-24T21:09:06.678Z,14.80
2018-04-24T21:11:34.741Z,14.80
2018-04-24T21:14:02.828Z,14.80
2018-04-24T21:16:30.886Z,14.80
2018-04-24T21:18:58.937Z,14.80
2018-04-24T21:21:27.754Z,14.80
2018-04-24T21:23:55.810Z,14.80
2018-04-24T21:26:24.649Z,14.80
2018-04-24T21:28:52.749Z,14.80
2018-04-24T21:31:20.792Z,14.80
2018-04-24T21:33:48.877Z,14.80
2018-04-24T21:36:17.477Z,14.80
2018-04-24T21:38:45.512Z,14.80
2018-04-24T21:41:13.584Z,14.80
2018-04-24T21:43:41.664Z,14.80
2018-04-24T21:46:09.726Z,14.80
2018-04-24T21:48:37.767Z,14.80
2018-04-24T21:51:05.861Z,14.70
2018-04-24T21:53:33.905Z,14.70
2018-04-24T21:56:02.830Z,14.70
2018-04-24T21:58:30.863Z,14.70
2018-04-24T22:00:58.930Z,14.60
2018-04-24T22:03:27.783Z,14.60
2018-04-24T22:05:55.841Z,14.60
2018-04-24T22:08:23.937Z,14.50
2018-04-24T22:10:52.233Z,14.60
2018-04-24T22:13:20.340Z,14.50
2018-04-24T22:15:48.367Z,14.50
2018-04-24T22:18:16.420Z,14.50
2018-04-24T22:20:44.465Z,14.50
2018-04-24T22:23:12.534Z,14.50
2018-04-24T22:25:40.631Z,14.40
2018-04-24T22:28:08.712Z,14.40
2018-04-24T22:30:36.765Z,14.40
2018-04-24T22:33:04.878Z,14.40
2018-04-24T22:35:32.924Z,14.40
2018-04-24T22:38:01.001Z,14.40
2018-04-24T22:40:29.056Z,14.40
2018-04-24T22:42:57.129Z,14.40
2018-04-24T22:45:25.216Z,14.30
2018-04-24T22:47:53.294Z,14.30
2018-04-24T22:50:22.128Z,14.30
2018-04-24T22:52:50.187Z,14.30
2018-04-24T22:55:18.260Z,14.30
2018-04-24T22:57:46.429Z,14.30
2018-04-24T23:00:15.379Z,14.30
2018-04-24T23:02:43.428Z,14.30
2018-04-24T23:05:11.694Z,14.30
2018-04-24T23:07:39.793Z,14.30
2018-04-24T23:10:07.415Z,14.30
2018-04-24T23:12:47.491Z,14.30
2018-04-24T23:15:27.415Z,14.30
2018-04-24T23:18:07.502Z,14.30
2018-04-24T23:20:35.140Z,14.30
2018-04-24T23:23:03.199Z,14.30
2018-04-24T23:25:31.285Z,14.30
2018-04-24T23:27:59.377Z,14.30
2018-04-24T23:30:27.408Z,14.30
2018-04-24T23:32:55.494Z,14.20
2018-04-24T23:35:23.570Z,14.20
2018-04-24T23:37:51.645Z,14.20
2018-04-24T23:40:19.824Z,14.20
2018-04-24T23:42:47.871Z,14.20
2018-04-24T23:45:15.949Z,14.10
2018-04-24T23:47:44.014Z,14.00
2018-04-24T23:50:12.105Z,13.90
2018-04-24T23:52:40.282Z,13.90
2018-04-24T23:55:08.361Z,13.80
2018-04-24T23:57:36.533Z,13.70
